sensor_id;sensor_type;location;lat;lon;timestamp;pressure;altitude;pressure_sealevel;temperature;humidity
56142;BME280;42018;48.588;10.836;2023-06-22T00:01:23;96822.81;;;22.29;67.78
56142;BME280;42018;48.588;10.836;2023-06-22T00:04:09;96824.75;;;22.29;68.25
56142;BME280;42018;48.588;10.836;2023-06-22T00:06:54;96828.00;;;22.22;67.85
56142;BME280;42018;48.588;10.836;2023-06-22T00:09:39;96823.03;;;22.12;69.31
56142;BME280;42018;48.588;10.836;2023-06-22T00:12:25;96823.38;;;22.10;69.47
56142;BME280;42018;48.588;10.836;2023-06-22T00:15:10;96826.41;;;21.96;70.18
56142;BME280;42018;48.588;10.836;2023-06-22T00:17:55;96818.63;;;21.83;70.97
56142;BME280;42018;48.588;10.836;2023-06-22T00:20:42;96820.00;;;21.89;70.27
56142;BME280;42018;48.588;10.836;2023-06-22T00:23:27;96827.66;;;21.99;69.35
56142;BME280;42018;48.588;10.836;2023-06-22T00:26:13;96840.66;;;21.97;69.97
56142;BME280;42018;48.588;10.836;2023-06-22T00:28:58;96842.56;;;21.72;71.77
56142;BME280;42018;48.588;10.836;2023-06-22T00:31:44;96823.44;;;21.77;70.62
56142;BME280;42018;48.588;10.836;2023-06-22T00:34:29;96828.41;;;21.75;71.50
56142;BME280;42018;48.588;10.836;2023-06-22T00:37:14;96827.28;;;21.76;70.79
56142;BME280;42018;48.588;10.836;2023-06-22T00:40:00;96833.34;;;21.73;70.87
56142;BME280;42018;48.588;10.836;2023-06-22T00:42:45;96825.38;;;21.76;70.30
56142;BME280;42018;48.588;10.836;2023-06-22T00:45:30;96834.22;;;21.65;71.32
56142;BME280;42018;48.588;10.836;2023-06-22T00:48:16;96827.16;;;21.60;71.65
56142;BME280;42018;48.588;10.836;2023-06-22T00:51:02;96835.38;;;21.64;71.19
56142;BME280;42018;48.588;10.836;2023-06-22T00:53:47;96832.19;;;21.62;71.18
56142;BME280;42018;48.588;10.836;2023-06-22T00:56:33;96832.84;;;21.46;72.03
56142;BME280;42018;48.588;10.836;2023-06-22T00:59:20;96828.34;;;21.38;72.69
56142;BME280;42018;48.588;10.836;2023-06-22T01:02:06;96830.69;;;21.40;72.48
56142;BME280;42018;48.588;10.836;2023-06-22T01:04:51;96829.13;;;21.39;73.29
56142;BME280;42018;48.588;10.836;2023-06-22T01:16:30;96840.66;;;21.06;75.08
56142;BME280;42018;48.588;10.836;2023-06-22T01:19:36;96845.19;;;20.93;75.00
56142;BME280;42018;48.588;10.836;2023-06-22T01:22:25;96840.47;;;20.90;76.26
56142;BME280;42018;48.588;10.836;2023-06-22T01:25:24;96846.59;;;20.78;76.24
56142;BME280;42018;48.588;10.836;2023-06-22T01:28:24;96842.59;;;20.64;76.82
56142;BME280;42018;48.588;10.836;2023-06-22T01:31:13;96850.78;;;20.67;77.50
56142;BME280;42018;48.588;10.836;2023-06-22T01:34:02;96843.91;;;20.78;77.12
56142;BME280;42018;48.588;10.836;2023-06-22T01:36:49;96851.13;;;20.87;76.57
56142;BME280;42018;48.588;10.836;2023-06-22T01:39:35;96863.97;;;20.81;76.97
56142;BME280;42018;48.588;10.836;2023-06-22T01:42:23;96863.41;;;20.75;77.53
56142;BME280;42018;48.588;10.836;2023-06-22T01:45:11;96860.84;;;20.79;77.35
56142;BME280;42018;48.588;10.836;2023-06-22T01:47:57;96858.00;;;20.75;77.41
56142;BME280;42018;48.588;10.836;2023-06-22T01:50:43;96862.63;;;20.75;77.58
56142;BME280;42018;48.588;10.836;2023-06-22T01:53:28;96865.72;;;20.86;76.53
56142;BME280;42018;48.588;10.836;2023-06-22T01:56:16;96849.03;;;20.92;75.44
56142;BME280;42018;48.588;10.836;2023-06-22T02:02:09;96844.28;;;20.68;76.80
56142;BME280;42018;48.588;10.836;2023-06-22T02:05:03;96845.69;;;20.74;76.54
56142;BME280;42018;48.588;10.836;2023-06-22T02:10:44;96839.69;;;20.90;75.99
56142;BME280;42018;48.588;10.836;2023-06-22T02:13:31;96841.31;;;21.03;74.75
56142;BME280;42018;48.588;10.836;2023-06-22T02:16:17;96843.56;;;21.01;75.22
56142;BME280;42018;48.588;10.836;2023-06-22T02:19:03;96835.16;;;21.02;74.89
56142;BME280;42018;48.588;10.836;2023-06-22T02:21:49;96832.34;;;20.99;74.98
56142;BME280;42018;48.588;10.836;2023-06-22T02:24:34;96835.59;;;21.04;74.43
56142;BME280;42018;48.588;10.836;2023-06-22T02:27:19;96836.72;;;21.03;74.53
56142;BME280;42018;48.588;10.836;2023-06-22T02:30:06;96833.81;;;21.09;73.76
56142;BME280;42018;48.588;10.836;2023-06-22T02:32:51;96838.16;;;21.01;73.95
56142;BME280;42018;48.588;10.836;2023-06-22T02:35:43;96837.78;;;20.90;74.88
56142;BME280;42018;48.588;10.836;2023-06-22T02:38:32;96835.59;;;20.63;76.26
56142;BME280;42018;48.588;10.836;2023-06-22T02:41:19;96829.03;;;20.51;77.42
56142;BME280;42018;48.588;10.836;2023-06-22T02:44:04;96831.06;;;20.54;77.28
56142;BME280;42018;48.588;10.836;2023-06-22T02:46:50;96834.16;;;20.65;76.34
56142;BME280;42018;48.588;10.836;2023-06-22T02:49:35;96826.69;;;20.71;75.86
56142;BME280;42018;48.588;10.836;2023-06-22T02:52:21;96837.38;;;20.79;74.94
56142;BME280;42018;48.588;10.836;2023-06-22T02:55:06;96841.34;;;20.82;74.54
56142;BME280;42018;48.588;10.836;2023-06-22T02:57:55;96835.75;;;20.66;75.97
56142;BME280;42018;48.588;10.836;2023-06-22T03:00:42;96841.72;;;20.72;75.59
56142;BME280;42018;48.588;10.836;2023-06-22T03:03:27;96839.81;;;20.72;75.47
56142;BME280;42018;48.588;10.836;2023-06-22T03:06:13;96850.44;;;20.69;75.54
56142;BME280;42018;48.588;10.836;2023-06-22T03:09:01;96839.81;;;20.72;75.57
56142;BME280;42018;48.588;10.836;2023-06-22T03:11:46;96838.38;;;20.75;75.20
56142;BME280;42018;48.588;10.836;2023-06-22T03:14:32;96836.47;;;20.75;74.71
56142;BME280;42018;48.588;10.836;2023-06-22T03:17:17;96838.66;;;20.82;74.11
56142;BME280;42018;48.588;10.836;2023-06-22T03:20:03;96839.75;;;20.81;74.48
56142;BME280;42018;48.588;10.836;2023-06-22T03:22:58;96840.22;;;20.83;73.83
56142;BME280;42018;48.588;10.836;2023-06-22T03:25:43;96828.31;;;20.84;74.16
56142;BME280;42018;48.588;10.836;2023-06-22T03:28:31;96840.00;;;20.88;73.38
56142;BME280;42018;48.588;10.836;2023-06-22T03:31:17;96823.78;;;20.97;72.26
56142;BME280;42018;48.588;10.836;2023-06-22T03:34:06;96822.88;;;20.93;72.67
56142;BME280;42018;48.588;10.836;2023-06-22T03:36:51;96833.44;;;20.98;71.98
56142;BME280;42018;48.588;10.836;2023-06-22T03:39:37;96841.91;;;20.88;73.00
56142;BME280;42018;48.588;10.836;2023-06-22T03:42:22;96843.94;;;20.70;74.26
56142;BME280;42018;48.588;10.836;2023-06-22T03:45:08;96837.25;;;20.55;75.23
56142;BME280;42018;48.588;10.836;2023-06-22T03:47:53;96836.25;;;20.30;76.87
56142;BME280;42018;48.588;10.836;2023-06-22T03:50:39;96844.53;;;20.25;77.03
56142;BME280;42018;48.588;10.836;2023-06-22T03:53:24;96844.84;;;20.23;77.46
56142;BME280;42018;48.588;10.836;2023-06-22T03:56:09;96851.56;;;20.38;76.97
56142;BME280;42018;48.588;10.836;2023-06-22T03:58:55;96853.53;;;20.29;77.18
56142;BME280;42018;48.588;10.836;2023-06-22T04:01:40;96841.47;;;20.35;76.69
56142;BME280;42018;48.588;10.836;2023-06-22T04:04:25;96845.72;;;20.36;77.13
56142;BME280;42018;48.588;10.836;2023-06-22T04:07:11;96850.00;;;20.37;77.03
56142;BME280;42018;48.588;10.836;2023-06-22T04:09:56;96848.84;;;20.47;77.02
56142;BME280;42018;48.588;10.836;2023-06-22T04:12:41;96837.72;;;20.48;76.88
56142;BME280;42018;48.588;10.836;2023-06-22T04:15:27;96833.13;;;20.49;77.49
56142;BME280;42018;48.588;10.836;2023-06-22T04:18:12;96839.34;;;20.70;76.40
56142;BME280;42018;48.588;10.836;2023-06-22T04:20:58;96840.88;;;20.80;76.25
56142;BME280;42018;48.588;10.836;2023-06-22T04:23:44;96838.81;;;20.77;76.21
56142;BME280;42018;48.588;10.836;2023-06-22T04:26:31;96848.94;;;20.80;76.67
56142;BME280;42018;48.588;10.836;2023-06-22T04:29:21;96851.56;;;20.68;77.41
56142;BME280;42018;48.588;10.836;2023-06-22T04:32:14;96850.50;;;20.81;76.10
56142;BME280;42018;48.588;10.836;2023-06-22T04:35:00;96844.03;;;21.03;74.79
56142;BME280;42018;48.588;10.836;2023-06-22T04:37:45;96849.41;;;21.03;74.79
56142;BME280;42018;48.588;10.836;2023-06-22T04:40:33;96844.81;;;21.03;74.54
56142;BME280;42018;48.588;10.836;2023-06-22T04:43:19;96851.09;;;21.08;74.35
56142;BME280;42018;48.588;10.836;2023-06-22T04:46:04;96844.16;;;21.07;74.63
56142;BME280;42018;48.588;10.836;2023-06-22T04:48:50;96840.31;;;21.08;75.05
56142;BME280;42018;48.588;10.836;2023-06-22T04:51:45;96832.38;;;21.11;74.54
56142;BME280;42018;48.588;10.836;2023-06-22T04:54:30;96834.31;;;21.23;74.87
56142;BME280;42018;48.588;10.836;2023-06-22T04:57:18;96835.03;;;21.32;75.15
56142;BME280;42018;48.588;10.836;2023-06-22T05:00:04;96834.63;;;21.42;74.48
56142;BME280;42018;48.588;10.836;2023-06-22T05:03:02;96833.50;;;21.43;74.79
56142;BME280;42018;48.588;10.836;2023-06-22T05:05:48;96839.13;;;21.38;74.71
56142;BME280;42018;48.588;10.836;2023-06-22T05:08:33;96831.81;;;21.39;75.66
56142;BME280;42018;48.588;10.836;2023-06-22T05:11:19;96827.53;;;21.38;75.18
56142;BME280;42018;48.588;10.836;2023-06-22T05:14:05;96824.09;;;21.49;74.30
56142;BME280;42018;48.588;10.836;2023-06-22T05:16:50;96807.94;;;21.62;74.69
56142;BME280;42018;48.588;10.836;2023-06-22T05:19:37;96805.34;;;21.65;75.39
56142;BME280;42018;48.588;10.836;2023-06-22T05:22:22;96807.47;;;21.47;76.80
56142;BME280;42018;48.588;10.836;2023-06-22T05:25:09;96801.19;;;21.56;76.31
56142;BME280;42018;48.588;10.836;2023-06-22T05:27:54;96801.88;;;21.52;75.99
56142;BME280;42018;48.588;10.836;2023-06-22T05:30:41;96797.50;;;21.60;76.17
56142;BME280;42018;48.588;10.836;2023-06-22T05:33:26;96797.63;;;21.64;75.67
56142;BME280;42018;48.588;10.836;2023-06-22T05:36:12;96792.00;;;21.57;76.75
56142;BME280;42018;48.588;10.836;2023-06-22T05:38:57;96812.00;;;21.68;76.52
56142;BME280;42018;48.588;10.836;2023-06-22T05:41:45;96802.81;;;21.81;76.23
56142;BME280;42018;48.588;10.836;2023-06-22T05:44:30;96791.78;;;21.74;76.49
56142;BME280;42018;48.588;10.836;2023-06-22T05:47:16;96786.50;;;21.78;76.24
56142;BME280;42018;48.588;10.836;2023-06-22T05:50:01;96786.28;;;21.83;76.60
56142;BME280;42018;48.588;10.836;2023-06-22T05:52:51;96783.00;;;21.77;76.92
56142;BME280;42018;48.588;10.836;2023-06-22T05:55:36;96786.84;;;21.88;76.48
56142;BME280;42018;48.588;10.836;2023-06-22T05:58:22;96783.34;;;22.00;76.62
56142;BME280;42018;48.588;10.836;2023-06-22T06:01:07;96779.72;;;22.08;76.14
56142;BME280;42018;48.588;10.836;2023-06-22T06:03:52;96774.13;;;22.01;76.39
56142;BME280;42018;48.588;10.836;2023-06-22T06:06:38;96770.06;;;22.19;75.25
56142;BME280;42018;48.588;10.836;2023-06-22T06:09:23;96768.97;;;22.20;74.67
56142;BME280;42018;48.588;10.836;2023-06-22T06:12:09;96766.59;;;22.31;74.71
56142;BME280;42018;48.588;10.836;2023-06-22T06:14:54;96768.72;;;22.26;74.04
56142;BME280;42018;48.588;10.836;2023-06-22T06:17:48;96764.31;;;22.33;73.72
56142;BME280;42018;48.588;10.836;2023-06-22T06:20:34;96767.13;;;22.49;73.33
56142;BME280;42018;48.588;10.836;2023-06-22T06:23:20;96769.91;;;22.53;73.34
56142;BME280;42018;48.588;10.836;2023-06-22T06:26:06;96762.13;;;22.63;72.79
56142;BME280;42018;48.588;10.836;2023-06-22T06:28:52;96754.13;;;22.67;71.92
56142;BME280;42018;48.588;10.836;2023-06-22T06:31:37;96757.81;;;22.75;71.46
56142;BME280;42018;48.588;10.836;2023-06-22T06:34:23;96765.06;;;22.86;71.36
56142;BME280;42018;48.588;10.836;2023-06-22T06:37:08;96759.28;;;23.00;69.95
56142;BME280;42018;48.588;10.836;2023-06-22T06:39:53;96756.41;;;22.93;70.58
56142;BME280;42018;48.588;10.836;2023-06-22T06:42:40;96754.66;;;23.01;68.21
56142;BME280;42018;48.588;10.836;2023-06-22T06:45:26;96760.34;;;23.11;68.51
56142;BME280;42018;48.588;10.836;2023-06-22T06:48:13;96745.72;;;23.12;68.53
56142;BME280;42018;48.588;10.836;2023-06-22T06:50:58;96754.81;;;23.36;68.19
56142;BME280;42018;48.588;10.836;2023-06-22T06:53:44;96748.53;;;23.48;67.83
56142;BME280;42018;48.588;10.836;2023-06-22T06:56:29;96760.25;;;23.52;68.00
56142;BME280;42018;48.588;10.836;2023-06-22T06:59:15;96746.81;;;23.71;65.76
56142;BME280;42018;48.588;10.836;2023-06-22T07:02:00;96752.84;;;23.80;65.50
56142;BME280;42018;48.588;10.836;2023-06-22T07:04:46;96741.28;;;23.83;65.18
56142;BME280;42018;48.588;10.836;2023-06-22T07:07:32;96737.19;;;23.89;64.93
56142;BME280;42018;48.588;10.836;2023-06-22T07:10:17;96727.66;;;23.96;64.47
56142;BME280;42018;48.588;10.836;2023-06-22T07:13:03;96727.28;;;24.13;64.30
56142;BME280;42018;48.588;10.836;2023-06-22T07:15:48;96725.44;;;24.17;63.46
56142;BME280;42018;48.588;10.836;2023-06-22T07:18:34;96726.03;;;24.26;63.21
56142;BME280;42018;48.588;10.836;2023-06-22T07:21:19;96728.72;;;24.26;62.76
56142;BME280;42018;48.588;10.836;2023-06-22T07:24:06;96726.97;;;24.34;63.41
56142;BME280;42018;48.588;10.836;2023-06-22T07:26:51;96723.72;;;24.44;63.34
56142;BME280;42018;48.588;10.836;2023-06-22T07:29:36;96719.00;;;24.60;62.89
56142;BME280;42018;48.588;10.836;2023-06-22T07:32:22;96722.50;;;24.80;61.88
56142;BME280;42018;48.588;10.836;2023-06-22T07:35:08;96714.06;;;24.85;61.65
56142;BME280;42018;48.588;10.836;2023-06-22T07:37:53;96716.63;;;24.98;61.51
56142;BME280;42018;48.588;10.836;2023-06-22T07:40:39;96720.09;;;25.18;61.58
56142;BME280;42018;48.588;10.836;2023-06-22T07:43:24;96716.59;;;25.17;60.15
56142;BME280;42018;48.588;10.836;2023-06-22T07:46:09;96713.59;;;25.03;61.24
56142;BME280;42018;48.588;10.836;2023-06-22T07:48:55;96714.06;;;25.28;59.95
56142;BME280;42018;48.588;10.836;2023-06-22T07:51:40;96711.91;;;25.14;59.87
56142;BME280;42018;48.588;10.836;2023-06-22T07:54:26;96717.75;;;25.16;59.73
56142;BME280;42018;48.588;10.836;2023-06-22T07:57:11;96703.13;;;25.44;60.00
56142;BME280;42018;48.588;10.836;2023-06-22T07:59:56;96705.59;;;25.29;59.44
56142;BME280;42018;48.588;10.836;2023-06-22T08:02:43;96700.69;;;25.39;59.35
56142;BME280;42018;48.588;10.836;2023-06-22T08:05:29;96709.59;;;25.39;58.69
56142;BME280;42018;48.588;10.836;2023-06-22T08:08:15;96703.75;;;25.60;59.80
56142;BME280;42018;48.588;10.836;2023-06-22T08:11:01;96709.13;;;25.56;58.35
56142;BME280;42018;48.588;10.836;2023-06-22T08:13:47;96708.38;;;25.60;58.45
56142;BME280;42018;48.588;10.836;2023-06-22T08:16:32;96717.44;;;25.90;58.25
56142;BME280;42018;48.588;10.836;2023-06-22T08:19:17;96713.59;;;25.95;56.43
56142;BME280;42018;48.588;10.836;2023-06-22T08:22:03;96704.94;;;25.86;57.40
56142;BME280;42018;48.588;10.836;2023-06-22T08:24:48;96702.47;;;25.77;57.41
56142;BME280;42018;48.588;10.836;2023-06-22T08:27:34;96705.41;;;25.91;56.98
56142;BME280;42018;48.588;10.836;2023-06-22T08:30:19;96710.91;;;26.25;56.72
56142;BME280;42018;48.588;10.836;2023-06-22T08:33:04;96711.84;;;26.36;56.82
56142;BME280;42018;48.588;10.836;2023-06-22T08:35:50;96709.72;;;26.53;55.59
56142;BME280;42018;48.588;10.836;2023-06-22T08:38:35;96700.69;;;26.79;55.04
56142;BME280;42018;48.588;10.836;2023-06-22T08:41:20;96705.56;;;26.99;55.54
56142;BME280;42018;48.588;10.836;2023-06-22T08:44:06;96704.47;;;27.04;54.16
56142;BME280;42018;48.588;10.836;2023-06-22T08:46:51;96701.34;;;27.02;55.03
56142;BME280;42018;48.588;10.836;2023-06-22T08:49:36;96690.47;;;27.43;53.14
56142;BME280;42018;48.588;10.836;2023-06-22T08:52:23;96700.31;;;27.58;52.83
56142;BME280;42018;48.588;10.836;2023-06-22T08:55:09;96702.34;;;27.68;52.61
56142;BME280;42018;48.588;10.836;2023-06-22T08:57:55;96697.00;;;27.83;51.76
56142;BME280;42018;48.588;10.836;2023-06-22T09:00:40;96685.25;;;27.72;51.48
56142;BME280;42018;48.588;10.836;2023-06-22T09:03:25;96693.69;;;27.59;52.78
56142;BME280;42018;48.588;10.836;2023-06-22T09:06:11;96684.59;;;27.89;51.45
56142;BME280;42018;48.588;10.836;2023-06-22T09:08:58;96678.97;;;27.67;52.00
56142;BME280;42018;48.588;10.836;2023-06-22T09:11:44;96671.97;;;27.66;51.13
56142;BME280;42018;48.588;10.836;2023-06-22T09:14:30;96669.34;;;27.77;51.72
56142;BME280;42018;48.588;10.836;2023-06-22T09:17:15;96673.84;;;28.17;49.62
56142;BME280;42018;48.588;10.836;2023-06-22T09:20:01;96671.69;;;28.52;49.15
56142;BME280;42018;48.588;10.836;2023-06-22T09:22:46;96666.28;;;28.70;48.02
56142;BME280;42018;48.588;10.836;2023-06-22T09:25:32;96662.81;;;28.80;47.56
56142;BME280;42018;48.588;10.836;2023-06-22T09:28:17;96667.41;;;28.47;48.65
56142;BME280;42018;48.588;10.836;2023-06-22T09:31:02;96656.59;;;28.83;49.01
56142;BME280;42018;48.588;10.836;2023-06-22T09:33:48;96657.03;;;29.24;47.52
56142;BME280;42018;48.588;10.836;2023-06-22T09:36:33;96651.97;;;29.41;46.19
56142;BME280;42018;48.588;10.836;2023-06-22T09:39:18;96646.91;;;29.68;46.58
56142;BME280;42018;48.588;10.836;2023-06-22T09:42:04;96654.69;;;29.44;46.19
56142;BME280;42018;48.588;10.836;2023-06-22T09:44:51;96643.78;;;29.51;45.92
56142;BME280;42018;48.588;10.836;2023-06-22T09:47:36;96635.22;;;29.67;46.41
56142;BME280;42018;48.588;10.836;2023-06-22T09:50:22;96630.53;;;29.71;46.44
56142;BME280;42018;48.588;10.836;2023-06-22T09:53:07;96625.84;;;29.57;45.74
56142;BME280;42018;48.588;10.836;2023-06-22T09:55:54;96632.84;;;29.55;45.90
56142;BME280;42018;48.588;10.836;2023-06-22T09:58:39;96632.06;;;29.51;46.19
56142;BME280;42018;48.588;10.836;2023-06-22T10:01:24;96631.31;;;29.65;46.07
56142;BME280;42018;48.588;10.836;2023-06-22T10:04:10;96628.13;;;29.88;46.09
56142;BME280;42018;48.588;10.836;2023-06-22T10:06:55;96622.91;;;30.36;44.23
56142;BME280;42018;48.588;10.836;2023-06-22T10:09:40;96627.50;;;30.53;43.74
56142;BME280;42018;48.588;10.836;2023-06-22T10:12:27;96615.84;;;30.46;43.00
56142;BME280;42018;48.588;10.836;2023-06-22T10:15:12;96619.31;;;30.50;42.80
56142;BME280;42018;48.588;10.836;2023-06-22T10:17:58;96621.38;;;30.32;43.82
56142;BME280;42018;48.588;10.836;2023-06-22T10:20:46;96621.72;;;30.37;43.36
56142;BME280;42018;48.588;10.836;2023-06-22T10:23:32;96623.03;;;30.00;44.21
56142;BME280;42018;48.588;10.836;2023-06-22T10:26:17;96625.63;;;30.36;43.73
56142;BME280;42018;48.588;10.836;2023-06-22T10:29:03;96623.97;;;30.57;43.92
56142;BME280;42018;48.588;10.836;2023-06-22T10:31:48;96627.25;;;31.00;44.18
56142;BME280;42018;48.588;10.836;2023-06-22T10:34:34;96628.75;;;31.05;42.41
56142;BME280;42018;48.588;10.836;2023-06-22T10:37:19;96626.28;;;31.24;42.64
56142;BME280;42018;48.588;10.836;2023-06-22T10:40:05;96626.50;;;31.44;42.89
56142;BME280;42018;48.588;10.836;2023-06-22T10:42:51;96631.38;;;31.67;41.99
56142;BME280;42018;48.588;10.836;2023-06-22T10:45:36;96629.56;;;31.95;41.47
56142;BME280;42018;48.588;10.836;2023-06-22T10:48:21;96621.94;;;31.72;42.66
56142;BME280;42018;48.588;10.836;2023-06-22T10:51:06;96629.72;;;31.77;42.43
56142;BME280;42018;48.588;10.836;2023-06-22T10:53:52;96626.03;;;31.94;41.53
56142;BME280;42018;48.588;10.836;2023-06-22T10:56:37;96629.88;;;32.01;42.53
56142;BME280;42018;48.588;10.836;2023-06-22T10:59:23;96625.22;;;31.98;41.14
56142;BME280;42018;48.588;10.836;2023-06-22T11:02:08;96629.53;;;31.99;40.93
56142;BME280;42018;48.588;10.836;2023-06-22T11:04:54;96620.31;;;31.37;41.49
56142;BME280;42018;48.588;10.836;2023-06-22T11:07:43;96625.53;;;31.20;43.03
56142;BME280;42018;48.588;10.836;2023-06-22T11:10:29;96624.59;;;30.89;42.99
56142;BME280;42018;48.588;10.836;2023-06-22T11:13:14;96627.00;;;30.76;43.08
56142;BME280;42018;48.588;10.836;2023-06-22T11:16:00;96624.59;;;30.89;42.28
56142;BME280;42018;48.588;10.836;2023-06-22T11:18:45;96620.41;;;31.22;43.37
56142;BME280;42018;48.588;10.836;2023-06-22T11:21:31;96612.66;;;31.59;41.53
56142;BME280;42018;48.588;10.836;2023-06-22T11:24:17;96614.84;;;32.12;40.60
56142;BME280;42018;48.588;10.836;2023-06-22T11:27:03;96604.69;;;32.43;41.19
56142;BME280;42018;48.588;10.836;2023-06-22T11:29:48;96605.03;;;32.15;38.88
56142;BME280;42018;48.588;10.836;2023-06-22T11:32:34;96606.69;;;32.39;39.48
56142;BME280;42018;48.588;10.836;2023-06-22T11:35:20;96602.84;;;32.33;39.67
56142;BME280;42018;48.588;10.836;2023-06-22T11:38:05;96610.38;;;32.60;39.51
56142;BME280;42018;48.588;10.836;2023-06-22T11:40:51;96606.59;;;32.16;39.96
56142;BME280;42018;48.588;10.836;2023-06-22T11:43:36;96606.00;;;32.32;40.42
56142;BME280;42018;48.588;10.836;2023-06-22T11:46:22;96601.19;;;32.39;39.91
56142;BME280;42018;48.588;10.836;2023-06-22T11:49:08;96589.03;;;32.71;38.88
56142;BME280;42018;48.588;10.836;2023-06-22T11:51:53;96588.00;;;32.88;38.53
56142;BME280;42018;48.588;10.836;2023-06-22T11:54:38;96581.94;;;32.74;39.82
56142;BME280;42018;48.588;10.836;2023-06-22T11:57:24;96575.16;;;33.09;40.27
56142;BME280;42018;48.588;10.836;2023-06-22T12:00:10;96573.53;;;33.35;39.19
56142;BME280;42018;48.588;10.836;2023-06-22T12:03:01;96579.19;;;33.01;38.46
56142;BME280;42018;48.588;10.836;2023-06-22T12:05:47;96566.66;;;33.00;38.10
56142;BME280;42018;48.588;10.836;2023-06-22T12:08:32;96562.47;;;32.92;39.08
56142;BME280;42018;48.588;10.836;2023-06-22T12:11:17;96559.00;;;32.60;39.65
56142;BME280;42018;48.588;10.836;2023-06-22T12:14:03;96549.06;;;32.12;39.99
56142;BME280;42018;48.588;10.836;2023-06-22T12:16:49;96546.34;;;32.39;40.27
56142;BME280;42018;48.588;10.836;2023-06-22T12:19:34;96544.63;;;32.53;39.34
56142;BME280;42018;48.588;10.836;2023-06-22T12:22:20;96531.88;;;33.36;38.98
56142;BME280;42018;48.588;10.836;2023-06-22T12:25:05;96524.91;;;33.75;38.72
56142;BME280;42018;48.588;10.836;2023-06-22T12:27:51;96523.13;;;33.65;39.00
56142;BME280;42018;48.588;10.836;2023-06-22T12:30:36;96527.09;;;34.04;38.44
56142;BME280;42018;48.588;10.836;2023-06-22T12:33:22;96520.47;;;34.38;37.30
56142;BME280;42018;48.588;10.836;2023-06-22T12:36:07;96523.78;;;34.13;37.71
56142;BME280;42018;48.588;10.836;2023-06-22T12:38:52;96513.47;;;34.33;37.61
56142;BME280;42018;48.588;10.836;2023-06-22T12:41:38;96509.09;;;34.36;37.87
56142;BME280;42018;48.588;10.836;2023-06-22T12:44:23;96502.69;;;34.75;36.36
56142;BME280;42018;48.588;10.836;2023-06-22T12:47:09;96505.72;;;34.81;37.85
56142;BME280;42018;48.588;10.836;2023-06-22T12:49:54;96511.28;;;34.44;37.56
56142;BME280;42018;48.588;10.836;2023-06-22T12:52:40;96507.56;;;34.35;38.36
56142;BME280;42018;48.588;10.836;2023-06-22T12:55:26;96517.66;;;34.58;37.69
56142;BME280;42018;48.588;10.836;2023-06-22T12:58:11;96530.88;;;34.46;36.43
56142;BME280;42018;48.588;10.836;2023-06-22T13:00:56;96530.84;;;34.66;36.96
56142;BME280;42018;48.588;10.836;2023-06-22T13:03:42;96523.00;;;34.65;36.05
56142;BME280;42018;48.588;10.836;2023-06-22T13:06:27;96526.81;;;34.87;36.85
56142;BME280;42018;48.588;10.836;2023-06-22T13:09:14;96534.44;;;34.96;36.42
56142;BME280;42018;48.588;10.836;2023-06-22T13:11:59;96530.06;;;35.15;37.10
56142;BME280;42018;48.588;10.836;2023-06-22T13:14:45;96523.41;;;35.29;36.39
56142;BME280;42018;48.588;10.836;2023-06-22T13:17:32;96519.47;;;35.59;35.20
56142;BME280;42018;48.588;10.836;2023-06-22T13:20:17;96523.69;;;35.47;35.96
56142;BME280;42018;48.588;10.836;2023-06-22T13:23:02;96516.19;;;35.64;36.40
56142;BME280;42018;48.588;10.836;2023-06-22T13:25:48;96516.81;;;35.55;36.26
56142;BME280;42018;48.588;10.836;2023-06-22T13:28:33;96521.31;;;35.33;36.69
56142;BME280;42018;48.588;10.836;2023-06-22T13:31:18;96512.75;;;35.60;35.94
56142;BME280;42018;48.588;10.836;2023-06-22T13:34:04;96519.50;;;35.71;34.37
56142;BME280;42018;48.588;10.836;2023-06-22T13:36:49;96511.41;;;35.35;34.10
56142;BME280;42018;48.588;10.836;2023-06-22T13:39:34;96509.22;;;35.30;35.00
56142;BME280;42018;48.588;10.836;2023-06-22T13:42:20;96504.84;;;35.74;34.83
56142;BME280;42018;48.588;10.836;2023-06-22T13:45:06;96490.34;;;35.87;34.97
56142;BME280;42018;48.588;10.836;2023-06-22T13:47:51;96492.34;;;35.57;34.93
56142;BME280;42018;48.588;10.836;2023-06-22T13:50:37;96495.69;;;35.65;35.67
56142;BME280;42018;48.588;10.836;2023-06-22T13:53:24;96496.25;;;35.72;35.95
56142;BME280;42018;48.588;10.836;2023-06-22T13:56:10;96486.78;;;35.44;36.08
56142;BME280;42018;48.588;10.836;2023-06-22T13:58:55;96494.19;;;35.02;36.06
56142;BME280;42018;48.588;10.836;2023-06-22T14:01:40;96492.47;;;35.08;36.76
56142;BME280;42018;48.588;10.836;2023-06-22T14:04:26;96493.44;;;35.01;37.28
56142;BME280;42018;48.588;10.836;2023-06-22T14:07:13;96492.22;;;34.70;36.58
56142;BME280;42018;48.588;10.836;2023-06-22T14:10:00;96491.44;;;34.53;37.43
56142;BME280;42018;48.588;10.836;2023-06-22T14:12:45;96495.91;;;34.11;38.61
56142;BME280;42018;48.588;10.836;2023-06-22T14:15:31;96486.13;;;34.26;38.10
56142;BME280;42018;48.588;10.836;2023-06-22T14:18:17;96482.16;;;34.11;38.70
56142;BME280;42018;48.588;10.836;2023-06-22T14:21:02;96479.38;;;34.30;38.53
56142;BME280;42018;48.588;10.836;2023-06-22T14:23:48;96476.09;;;34.36;38.26
56142;BME280;42018;48.588;10.836;2023-06-22T14:26:34;96475.28;;;34.02;37.95
56142;BME280;42018;48.588;10.836;2023-06-22T14:29:20;96471.28;;;33.87;39.15
56142;BME280;42018;48.588;10.836;2023-06-22T14:32:06;96461.84;;;33.68;39.24
56142;BME280;42018;48.588;10.836;2023-06-22T14:34:52;96464.13;;;33.90;39.60
56142;BME280;42018;48.588;10.836;2023-06-22T14:37:37;96464.91;;;33.90;39.47
56142;BME280;42018;48.588;10.836;2023-06-22T14:40:22;96459.19;;;34.01;39.24
56142;BME280;42018;48.588;10.836;2023-06-22T14:43:08;96464.06;;;33.93;39.16